Stolt Lerk — MAQN9 — position and weather

sailwx.info

Track history (hours):
 
Tides and Currents Weather Stations Pressure Air Temp Water Temp Dewpoint Dewpoint Depression Visibility Wind Speed Wind Dir Waves Ship Positions

Stolt Lerk

Last reported at 2017-Sep-20 20:28 UTC. Time now 2017-Sep-24 03:34 UTC.
Position N 29°23' W 094°52'.

Length 185 m; draft 8.9 m.

Type: Tanker. MMSI: 232006625.

Date/timePositionNaut miles runAvg speedWind from/ knotsBaromVisibWave heightAir tempDewpointWater temp
2017-Sep-20 20:28N 29°23' W 094°52'1 0.1
2017-Sep-20 03:50N 29°22' W 094°53'5 0.2
2017-Sep-18 21:22N 29°21' W 094°47'612.2
2017-Sep-18 20:54N 29°26' W 094°50'511.7
2017-Sep-18 20:30N 29°30' W 094°53'510.9
2017-Sep-18 20:00N 29°35' W 094°56'510.7
2017-Sep-18 19:30N 29°40' W 094°58'5 9.2
2017-Sep-18 19:00N 29°44' W 095°01'4 7.3
2017-Sep-18 18:29N 29°46' W 095°05'1 0.0
2017-Sep-17 12:14N 29°45' W 095°06'1 2.3
2017-Sep-17 11:47N 29°46' W 095°05'2 6.8
2017-Sep-17 11:30N 29°44' W 095°04'4 8.4
2017-Sep-17 11:01N 29°42' W 094°60'611.9
2017-Sep-17 10:31N 29°36' W 094°57'612.8
2017-Sep-17 10:00N 29°31' W 094°53'19 2.7
2017-Sep-17 03:03N 29°17' W 094°39'0 0.0
2017-Sep-17 03:00N 29°17' W 094°39'0 0.0
2017-Sep-17 02:15N 29°17' W 094°39'0 0.0
2017-Sep-17 02:00N 29°17' W 094°39'0 0.0
2017-Sep-16 06:39N 29°17' W 094°39'0 0.1
2017-Sep-16 06:27N 29°17' W 094°39'0 0.1
2017-Sep-16 06:00N 29°17' W 094°39'  
2017-Sep-13 09:22N 29°21' W 094°47'510.6
2017-Sep-13 08:57N 29°25' W 094°50'4 9.3
2017-Sep-13 08:30N 29°29' W 094°51'5 9.3
2017-Sep-13 08:00N 29°33' W 094°54'510.2
2017-Sep-13 07:30N 29°37' W 094°57'4 8.7
2017-Sep-13 07:01N 29°41' W 094°59'3 6.7
2017-Sep-13 06:30N 29°44' W 095°02'4 7.6
2017-Sep-13 06:00N 29°46' W 095°05'3 5.5
2017-Sep-13 05:30N 29°44' W 095°08'0 0.0
2017-Sep-12 14:26N 29°44' W 095°08'0 0.6
2017-Sep-12 14:00N 29°44' W 095°07'3 5.6
2017-Sep-12 13:30N 29°46' W 095°05'4 7.6
2017-Sep-12 13:00N 29°44' W 095°01'4 7.8
2017-Sep-12 12:30N 29°41' W 094°59'612.3
2017-Sep-12 12:00N 29°35' W 094°56'612.8
2017-Sep-12 11:30N 29°30' W 094°52'712.9
2017-Sep-12 11:00N 29°23' W 094°49'4 0.1
2017-Sep-11 00:34N 29°21' W 094°45'211.6
2017-Sep-11 00:25N 29°21' W 094°47'512.3
2017-Sep-10 23:59N 29°26' W 094°50'612.9
2017-Sep-10 23:30N 29°31' W 094°53'612.5
2017-Sep-10 23:00N 29°36' W 094°57'611.9
2017-Sep-10 22:30N 29°42' W 094°60'4 8.4
2017-Sep-10 22:00N 29°44' W 095°04'2 4.0
2017-Sep-10 21:30N 29°45' W 095°06'  
Track history (hours):
 
Tides and Currents Weather Stations Pressure Air Temp Water Temp Dewpoint Dewpoint Depression Visibility Wind Speed Wind Dir Waves Ship Positions

Stolt Lerk

Last reported at 2017-Sep-20 20:28 UTC. Time now 2017-Sep-24 03:34 UTC.
Position N 29°23' W 094°52'.

Length 185 m; draft 8.9 m.

Type: Tanker. MMSI: 232006625.

Date/timePositionNaut miles runAvg speedWind from/ knotsBaromVisibWave heightAir tempDewpointWater temp
2017-Sep-20 20:28N 29°23' W 094°52'1 0.1
2017-Sep-20 03:50N 29°22' W 094°53'5 0.2
2017-Sep-18 21:22N 29°21' W 094°47'612.2
2017-Sep-18 20:54N 29°26' W 094°50'511.7
2017-Sep-18 20:30N 29°30' W 094°53'510.9
2017-Sep-18 20:00N 29°35' W 094°56'510.7
2017-Sep-18 19:30N 29°40' W 094°58'5 9.2
2017-Sep-18 19:00N 29°44' W 095°01'4 7.3
2017-Sep-18 18:29N 29°46' W 095°05'1 0.0
2017-Sep-17 12:14N 29°45' W 095°06'1 2.3
2017-Sep-17 11:47N 29°46' W 095°05'2 6.8
2017-Sep-17 11:30N 29°44' W 095°04'4 8.4
2017-Sep-17 11:01N 29°42' W 094°60'611.9
2017-Sep-17 10:31N 29°36' W 094°57'612.8
2017-Sep-17 10:00N 29°31' W 094°53'19 2.7
2017-Sep-17 03:03N 29°17' W 094°39'0 0.0
2017-Sep-17 03:00N 29°17' W 094°39'0 0.0
2017-Sep-17 02:15N 29°17' W 094°39'0 0.0
2017-Sep-17 02:00N 29°17' W 094°39'0 0.0
2017-Sep-16 06:39N 29°17' W 094°39'0 0.1
2017-Sep-16 06:27N 29°17' W 094°39'0 0.1
2017-Sep-16 06:00N 29°17' W 094°39'  
2017-Sep-13 09:22N 29°21' W 094°47'510.6
2017-Sep-13 08:57N 29°25' W 094°50'4 9.3
2017-Sep-13 08:30N 29°29' W 094°51'5 9.3
2017-Sep-13 08:00N 29°33' W 094°54'510.2
2017-Sep-13 07:30N 29°37' W 094°57'4 8.7
2017-Sep-13 07:01N 29°41' W 094°59'3 6.7
2017-Sep-13 06:30N 29°44' W 095°02'4 7.6
2017-Sep-13 06:00N 29°46' W 095°05'3 5.5
2017-Sep-13 05:30N 29°44' W 095°08'0 0.0
2017-Sep-12 14:26N 29°44' W 095°08'0 0.6
2017-Sep-12 14:00N 29°44' W 095°07'3 5.6
2017-Sep-12 13:30N 29°46' W 095°05'4 7.6
2017-Sep-12 13:00N 29°44' W 095°01'4 7.8
2017-Sep-12 12:30N 29°41' W 094°59'612.3
2017-Sep-12 12:00N 29°35' W 094°56'612.8
2017-Sep-12 11:30N 29°30' W 094°52'712.9
2017-Sep-12 11:00N 29°23' W 094°49'4 0.1
2017-Sep-11 00:34N 29°21' W 094°45'211.6
2017-Sep-11 00:25N 29°21' W 094°47'512.3
2017-Sep-10 23:59N 29°26' W 094°50'612.9
2017-Sep-10 23:30N 29°31' W 094°53'612.5
2017-Sep-10 23:00N 29°36' W 094°57'611.9
2017-Sep-10 22:30N 29°42' W 094°60'4 8.4
2017-Sep-10 22:00N 29°44' W 095°04'2 4.0
2017-Sep-10 21:30N 29°45' W 095°06'  

Dump ship's entire track history